Time;durP1;ratioP1;P1;durP2;ratioP2;P2;SDS_P1;SDS_P2;PMS_P1;PMS_P2;Temp;Humidity;BMP_temperature;BMP_pressure;BME280_temperature;BME280_humidity;BME280_pressure;Samples;Min_cycle;Max_cycle;Signal;HPM_P1;HPM_P2
2022/01/13 00:00:59;;;;;;;39.93;23.50;;;4.40;99.90;;;;;;5055692;28;20902;-70
2022/01/13 00:03:24;;;;;;;39.30;23.73;;;4.40;99.90;;;;;;5073519;28;20419;-68
2022/01/13 00:05:50;;;;;;;42.40;24.87;;;4.40;99.90;;;;;;5073349;28;20168;-67
2022/01/13 00:08:16;;;;;;;46.57;25.47;;;4.50;99.90;;;;;;5054605;28;20224;-69
2022/01/13 00:10:41;;;;;;;41.20;24.83;;;4.40;99.90;;;;;;5065644;22;20233;-68
2022/01/13 00:13:09;;;;;;;48.93;29.43;;;4.40;99.90;;;;;;5045617;28;20206;-68
2022/01/13 00:18:09;;;;;;;50.00;27.67;;;4.60;99.90;;;;;;5053969;28;20413;-68
2022/01/13 00:20:58;;;;;;;48.57;28.00;;;4.50;99.90;;;;;;5053636;28;20435;-68
2022/01/13 00:23:41;;;;;;;47.17;24.67;;;4.60;99.90;;;;;;5053231;28;20552;-68
2022/01/13 00:26:15;;;;;;;44.47;26.10;;;4.60;99.90;;;;;;5053171;28;20402;-68
2022/01/13 00:28:44;;;;;;;53.30;27.30;;;4.60;99.90;;;;;;5053248;28;20505;-68
2022/01/13 00:31:09;;;;;;;44.07;25.63;;;4.60;99.90;;;;;;5052548;28;20443;-68
2022/01/13 00:33:35;;;;;;;45.60;27.20;;;4.70;99.90;;;;;;5052292;28;20947;-68
2022/01/13 00:36:01;;;;;;;45.10;26.17;;;4.70;99.90;;;;;;5044774;28;20193;-68
2022/01/13 00:38:29;;;;;;;49.30;25.33;;;4.70;99.90;;;;;;5053170;28;20196;-68
2022/01/13 00:40:55;;;;;;;46.07;26.23;;;4.70;99.90;;;;;;5053174;28;20913;-68
2022/01/13 00:43:21;;;;;;;57.13;27.27;;;4.70;99.90;;;;;;5053106;28;20499;-68
2022/01/13 00:45:48;;;;;;;46.90;25.23;;;4.60;99.90;;;;;;5052881;28;20266;-68
2022/01/13 00:48:14;;;;;;;49.33;26.83;;;4.50;99.90;;;;;;5052733;28;20193;-68
2022/01/13 00:50:40;;;;;;;47.30;26.00;;;4.40;99.90;;;;;;5052899;28;20802;-69
2022/01/13 00:53:06;;;;;;;50.10;27.27;;;4.30;99.90;;;;;;5053047;28;20420;-69
2022/01/13 00:55:49;;;;;;;52.87;27.30;;;4.30;99.90;;;;;;5052807;28;20404;-69
2022/01/13 00:58:16;;;;;;;53.63;28.27;;;4.20;99.90;;;;;;5052820;28;20516;-69
2022/01/13 01:00:42;;;;;;;53.90;27.07;;;4.30;99.90;;;;;;5035313;28;20442;-68
2022/01/13 01:03:09;;;;;;;54.33;26.00;;;4.40;99.90;;;;;;5035034;28;20558;-69
2022/01/13 01:05:35;;;;;;;52.10;28.20;;;4.30;99.90;;;;;;5052445;28;20874;-69
2022/01/13 01:08:03;;;;;;;47.60;25.60;;;4.20;99.90;;;;;;5053072;28;20856;-69
2022/01/13 01:10:29;;;;;;;50.07;29.07;;;4.20;99.90;;;;;;5052284;28;20476;-69
2022/01/13 01:12:54;;;;;;;49.00;27.13;;;4.20;99.90;;;;;;5052566;28;20477;-69
2022/01/13 01:15:20;;;;;;;50.40;26.40;;;4.20;99.90;;;;;;5052490;28;20169;-68
2022/01/13 01:17:51;;;;;;;51.40;28.93;;;4.10;99.90;;;;;;5051624;28;20523;-68
2022/01/13 01:20:17;;;;;;;49.90;27.87;;;4.20;99.90;;;;;;5051906;28;20536;-68
2022/01/13 01:22:57;;;;;;;55.37;28.30;;;4.30;99.90;;;;;;5034513;28;20435;-68
2022/01/13 01:27:57;;;;;;;57.40;30.47;;;4.40;99.90;;;;;;5052303;28;20459;-68
2022/01/13 01:30:34;;;;;;;51.53;27.40;;;4.30;99.90;;;;;;5034535;28;20772;-68
2022/01/13 01:33:00;;;;;;;55.97;29.50;;;4.40;99.90;;;;;;5052448;28;20393;-69
2022/01/13 01:35:27;;;;;;;48.60;28.33;;;4.30;99.90;;;;;;5052390;28;20422;-69
2022/01/13 01:37:53;;;;;;;57.80;29.97;;;4.30;99.90;;;;;;5052376;28;20179;-69
2022/01/13 01:40:20;;;;;;;56.87;28.97;;;4.40;99.90;;;;;;5052358;28;20844;-69
2022/01/13 01:42:46;;;;;;;54.80;29.07;;;4.40;99.90;;;;;;5052236;28;20414;-69
2022/01/13 01:45:12;;;;;;;55.73;28.07;;;4.40;99.90;;;;;;5052319;28;20407;-69
2022/01/13 01:47:39;;;;;;;52.70;28.73;;;4.30;99.90;;;;;;5051984;28;20458;-69
2022/01/13 01:50:18;;;;;;;54.20;29.23;;;4.40;99.90;;;;;;5052379;28;20496;-68
2022/01/13 01:52:46;;;;;;;49.17;27.77;;;4.40;99.90;;;;;;5052571;28;20381;-68
2022/01/13 01:55:12;;;;;;;51.23;28.43;;;4.50;99.90;;;;;;5052452;28;20411;-69
2022/01/13 01:57:37;;;;;;;50.83;26.43;;;4.60;99.90;;;;;;5056234;28;20411;-69
2022/01/13 02:00:08;;;;;;;56.90;28.60;;;4.60;99.90;;;;;;5060652;28;20217;-69
2022/01/13 02:02:34;;;;;;;50.63;29.67;;;4.60;99.90;;;;;;5060376;28;20209;-68
2022/01/13 02:05:00;;;;;;;48.60;29.00;;;4.60;99.90;;;;;;5059584;28;20791;-69
2022/01/13 02:07:26;;;;;;;49.77;26.10;;;4.60;99.90;;;;;;5054367;28;20201;-68
2022/01/13 02:09:53;;;;;;;53.73;27.80;;;4.60;99.90;;;;;;5052417;28;20458;-69
2022/01/13 02:12:32;;;;;;;49.10;28.97;;;4.60;99.90;;;;;;5034141;28;20174;-69
2022/01/13 02:15:15;;;;;;;50.47;27.57;;;4.60;99.90;;;;;;5034241;28;20491;-69
2022/01/13 02:17:42;;;;;;;49.23;25.30;;;4.60;99.90;;;;;;5051473;28;20464;-69
2022/01/13 02:20:09;;;;;;;43.30;26.70;;;4.60;99.90;;;;;;5051041;28;20504;-69
2022/01/13 02:22:36;;;;;;;48.77;26.63;;;4.60;99.90;;;;;;5051818;28;20426;-69
2022/01/13 02:25:02;;;;;;;47.87;27.97;;;4.50;99.90;;;;;;5051590;28;20400;-68
2022/01/13 02:27:28;;;;;;;49.70;26.57;;;4.50;99.90;;;;;;5051180;28;20452;-68
2022/01/13 02:29:53;;;;;;;48.97;25.00;;;4.30;99.90;;;;;;5053293;28;20771;-69
2022/01/13 02:32:20;;;;;;;50.47;25.47;;;4.20;99.90;;;;;;5050809;28;20178;-68
2022/01/13 02:34:45;;;;;;;46.17;25.60;;;4.20;99.90;;;;;;5052629;28;20186;-68
2022/01/13 02:37:11;;;;;;;49.10;26.40;;;4.30;99.90;;;;;;5047116;28;20786;-68
2022/01/13 02:39:37;;;;;;;48.23;24.73;;;4.30;99.90;;;;;;5055961;28;20185;-68
2022/01/13 02:42:12;;;;;;;43.67;24.13;;;4.30;99.90;;;;;;5056586;28;20173;-68
2022/01/13 02:44:50;;;;;;;51.27;26.53;;;4.40;99.90;;;;;;5055822;28;20423;-68
2022/01/13 02:47:36;;;;;;;50.70;27.00;;;4.40;99.90;;;;;;5055870;28;20448;-68
2022/01/13 02:50:05;;;;;;;44.00;25.60;;;4.50;99.90;;;;;;5038102;28;20786;-68
2022/01/13 02:52:34;;;;;;;44.63;24.30;;;4.40;99.90;;;;;;5038351;28;20788;-67
2022/01/13 02:55:00;;;;;;;47.33;23.30;;;4.40;99.90;;;;;;5057093;28;20404;-68
2022/01/13 02:57:25;;;;;;;39.83;22.97;;;4.30;99.90;;;;;;5056232;28;20411;-68
2022/01/13 02:59:51;;;;;;;44.13;24.70;;;4.30;99.90;;;;;;5056359;28;20211;-69
2022/01/13 03:02:16;;;;;;;46.50;27.57;;;4.30;99.90;;;;;;5043386;28;20268;-69
2022/01/13 03:04:46;;;;;;;50.50;24.63;;;4.40;99.90;;;;;;5064205;28;20169;-68
2022/01/13 03:07:11;;;;;;;51.80;25.60;;;4.20;99.90;;;;;;5064457;28;20748;-69
2022/01/13 03:09:37;;;;;;;45.00;22.80;;;4.20;99.90;;;;;;5064789;28;20451;-68
2022/01/13 03:12:03;;;;;;;45.97;23.77;;;4.30;99.90;;;;;;5055954;28;20176;-68
2022/01/13 03:14:28;;;;;;;48.57;24.50;;;4.20;99.90;;;;;;5051815;28;20654;-69
2022/01/13 03:16:54;;;;;;;47.97;24.60;;;4.20;99.90;;;;;;5049734;28;20424;-68
2022/01/13 03:19:20;;;;;;;44.83;24.20;;;4.30;99.90;;;;;;5047642;28;20182;-68
2022/01/13 03:21:46;;;;;;;41.90;22.97;;;4.40;99.90;;;;;;5036902;28;20271;-67
2022/01/13 03:24:12;;;;;;;46.03;26.07;;;4.40;99.90;;;;;;5055103;28;20444;-68
2022/01/13 03:26:38;;;;;;;38.03;24.53;;;4.40;99.90;;;;;;5036720;28;20170;-68
2022/01/13 03:29:15;;;;;;;45.17;22.87;;;4.40;99.90;;;;;;5054856;28;20198;-68
2022/01/13 03:31:42;;;;;;;40.50;22.87;;;4.30;99.90;;;;;;5054766;28;20406;-68
2022/01/13 03:34:07;;;;;;;43.97;22.43;;;4.30;99.90;;;;;;5055496;28;20442;-68
2022/01/13 03:36:33;;;;;;;44.23;24.50;;;4.20;99.90;;;;;;5055727;28;20497;-69
2022/01/13 03:38:59;;;;;;;40.80;22.20;;;4.20;99.90;;;;;;5055322;28;20605;-68
2022/01/13 03:41:24;;;;;;;41.00;21.63;;;4.10;99.90;;;;;;5055122;28;20196;-68
2022/01/13 03:43:51;;;;;;;38.23;21.90;;;4.20;99.90;;;;;;5055091;28;20419;-68
2022/01/13 03:46:17;;;;;;;50.30;23.10;;;4.20;99.90;;;;;;5040581;28;20182;-68
2022/01/13 03:48:43;;;;;;;38.60;22.20;;;4.20;99.90;;;;;;5056831;28;20552;-68
2022/01/13 03:51:09;;;;;;;39.93;22.77;;;4.20;99.90;;;;;;5056674;28;20239;-68
2022/01/13 03:54:12;;;;;;;38.97;22.63;;;4.20;99.90;;;;;;5056199;28;20409;-68
2022/01/13 03:57:09;;;;;;;43.13;23.20;;;4.20;99.90;;;;;;5055074;28;20172;-68
2022/01/13 04:00:05;;;;;;;35.37;20.70;;;4.20;99.90;;;;;;5054613;28;20434;-68
2022/01/13 04:02:30;;;;;;;42.27;22.80;;;4.30;99.90;;;;;;5054497;28;20769;-68
2022/01/13 04:04:56;;;;;;;42.30;22.63;;;4.30;99.90;;;;;;5055201;28;20407;-68
2022/01/13 04:07:24;;;;;;;42.00;23.10;;;4.20;99.90;;;;;;5054621;28;20188;-69
2022/01/13 04:09:49;;;;;;;44.30;24.80;;;4.30;99.90;;;;;;5054738;28;20211;-68
2022/01/13 04:12:16;;;;;;;42.27;23.73;;;4.40;99.90;;;;;;5036966;28;20422;-68
2022/01/13 04:17:09;;;;;;;38.60;22.73;;;4.30;99.90;;;;;;5054594;28;20403;-68
2022/01/13 04:19:35;;;;;;;37.27;20.50;;;4.40;99.90;;;;;;5054845;28;20431;-68
2022/01/13 04:22:03;;;;;;;41.80;22.60;;;4.50;99.90;;;;;;5054354;28;20415;-68
2022/01/13 04:24:28;;;;;;;40.40;21.93;;;4.40;99.90;;;;;;5053204;28;20169;-68
2022/01/13 04:26:55;;;;;;;40.90;24.07;;;4.40;99.90;;;;;;5046286;28;20420;-67
2022/01/13 04:29:30;;;;;;;41.43;23.10;;;4.40;99.90;;;;;;5052750;28;20334;-68
2022/01/13 04:31:56;;;;;;;41.80;24.13;;;4.30;99.90;;;;;;5035681;28;20412;-68
2022/01/13 04:34:21;;;;;;;43.63;23.23;;;4.40;99.90;;;;;;5035600;28;20416;-68
2022/01/13 04:36:47;;;;;;;41.07;23.10;;;4.40;99.90;;;;;;5053161;28;20175;-69
2022/01/13 04:39:15;;;;;;;44.33;22.87;;;4.50;99.90;;;;;;5053019;28;20183;-67
2022/01/13 04:41:43;;;;;;;38.40;21.77;;;4.30;99.90;;;;;;5053265;28;20430;-68
2022/01/13 04:44:12;;;;;;;42.97;23.47;;;4.40;99.90;;;;;;5053733;28;20416;-68
2022/01/13 04:46:38;;;;;;;41.40;23.93;;;4.30;99.90;;;;;;5052963;28;20404;-68
2022/01/13 04:49:04;;;;;;;35.87;22.17;;;4.10;99.90;;;;;;5053275;28;20481;-68
2022/01/13 04:51:30;;;;;;;44.70;23.17;;;4.10;99.90;;;;;;5034474;28;20468;-68
2022/01/13 04:53:56;;;;;;;44.77;23.73;;;3.90;99.90;;;;;;5035039;28;20415;-68
2022/01/13 04:56:32;;;;;;;42.27;24.20;;;3.90;99.90;;;;;;5052486;28;20414;-68
2022/01/13 04:58:58;;;;;;;47.00;24.13;;;3.90;99.90;;;;;;5035083;28;20261;-68
2022/01/13 05:01:24;;;;;;;51.80;25.10;;;4.00;99.90;;;;;;5052089;28;20439;-68
2022/01/13 05:03:49;;;;;;;47.83;26.70;;;3.90;99.90;;;;;;5052865;28;20406;-68
2022/01/13 05:06:19;;;;;;;47.00;25.53;;;4.00;99.90;;;;;;5052354;28;20184;-68
2022/01/13 05:08:45;;;;;;;46.83;26.00;;;4.00;99.90;;;;;;5052982;28;20229;-68
2022/01/13 05:11:11;;;;;;;50.47;28.00;;;4.00;99.90;;;;;;5052523;28;20941;-68
2022/01/13 05:13:36;;;;;;;54.83;27.73;;;4.00;99.90;;;;;;5052563;28;20499;-68
2022/01/13 05:16:02;;;;;;;57.30;28.67;;;3.90;99.90;;;;;;5052476;28;20186;-68
2022/01/13 05:18:46;;;;;;;53.37;27.33;;;3.90;99.90;;;;;;5052818;28;20176;-68
2022/01/13 05:21:22;;;;;;;50.47;26.00;;;4.00;99.90;;;;;;5052439;28;20737;-68
2022/01/13 05:23:49;;;;;;;55.37;27.50;;;4.00;99.90;;;;;;5034701;28;20502;-68
2022/01/13 05:26:15;;;;;;;49.87;25.87;;;3.90;99.90;;;;;;5034376;28;20426;-68
2022/01/13 05:28:41;;;;;;;56.77;30.83;;;4.00;99.90;;;;;;5052149;28;20558;-68
2022/01/13 05:31:07;;;;;;;52.30;27.30;;;3.90;99.90;;;;;;5047692;28;20479;-68
2022/01/13 05:33:33;;;;;;;51.37;28.13;;;4.00;99.90;;;;;;5052324;28;20899;-68
2022/01/13 05:36:00;;;;;;;55.80;27.67;;;4.00;99.90;;;;;;5044114;28;20473;-68
2022/01/13 05:38:26;;;;;;;49.70;28.73;;;3.90;99.90;;;;;;5045821;28;20183;-68
2022/01/13 05:40:53;;;;;;;63.13;29.27;;;4.00;99.90;;;;;;5046345;28;20522;-68
2022/01/13 05:43:19;;;;;;;53.87;28.67;;;4.00;99.90;;;;;;5032441;28;20435;-68
2022/01/13 05:45:44;;;;;;;57.37;29.40;;;4.00;99.90;;;;;;5051372;28;20413;-68
2022/01/13 05:48:10;;;;;;;56.13;28.33;;;4.00;99.90;;;;;;5048044;28;20207;-68
2022/01/13 05:50:36;;;;;;;59.30;29.20;;;4.00;99.90;;;;;;5044145;28;20212;-68
2022/01/13 05:53:01;;;;;;;51.60;27.63;;;4.00;99.90;;;;;;5049361;28;20571;-68
2022/01/13 05:55:27;;;;;;;59.30;29.17;;;4.00;99.90;;;;;;5047176;28;20505;-68
2022/01/13 05:57:53;;;;;;;55.57;27.80;;;4.10;99.90;;;;;;5049748;28;20239;-68
2022/01/13 06:00:20;;;;;;;53.20;27.13;;;4.10;99.90;;;;;;5049169;28;20201;-68
2022/01/13 06:02:46;;;;;;;56.50;30.50;;;4.00;99.90;;;;;;5047650;28;20190;-68
2022/01/13 06:05:12;;;;;;;47.73;25.97;;;4.10;99.90;;;;;;5050212;28;20435;-68
2022/01/13 06:07:38;;;;;;;60.33;29.30;;;4.10;99.90;;;;;;5050007;28;20491;-68
2022/01/13 06:10:07;;;;;;;58.53;30.10;;;3.90;99.90;;;;;;5044325;28;20482;-68
2022/01/13 06:12:34;;;;;;;54.30;30.00;;;3.90;99.90;;;;;;5050355;22;20228;-67
2022/01/13 06:15:02;;;;;;;60.00;29.70;;;4.00;99.90;;;;;;5023443;28;20486;-66
2022/01/13 06:17:28;;;;;;;55.93;26.73;;;3.90;99.90;;;;;;5012920;28;20449;-67
2022/01/13 06:19:55;;;;;;;53.17;28.37;;;3.90;99.90;;;;;;5019364;28;20440;-66
2022/01/13 06:22:25;;;;;;;51.43;27.97;;;3.90;99.90;;;;;;5023142;28;21253;-68
2022/01/13 06:24:52;;;;;;;49.50;28.57;;;3.90;99.90;;;;;;5019854;28;20512;-67
2022/01/13 06:27:18;;;;;;;52.70;28.87;;;3.80;99.90;;;;;;5025982;28;20498;-68
2022/01/13 06:29:44;;;;;;;64.70;29.50;;;3.90;99.90;;;;;;5012673;28;20457;-69
2022/01/13 06:32:09;;;;;;;54.03;26.53;;;3.70;99.90;;;;;;5006627;28;20986;-67
2022/01/13 06:34:35;;;;;;;63.67;29.83;;;3.70;99.90;;;;;;5006496;28;20584;-68
2022/01/13 06:37:02;;;;;;;57.33;27.93;;;3.80;99.90;;;;;;5012673;28;20238;-68
2022/01/13 06:39:27;;;;;;;54.10;27.70;;;3.80;99.90;;;;;;5014345;28;20200;-69
2022/01/13 06:41:53;;;;;;;54.30;27.93;;;3.80;99.90;;;;;;5026628;28;20479;-68
2022/01/13 06:44:18;;;;;;;54.23;28.77;;;3.90;99.90;;;;;;5005297;28;20218;-68
2022/01/13 06:46:44;;;;;;;51.70;27.07;;;4.00;99.90;;;;;;5021259;28;20218;-68
2022/01/13 06:49:10;;;;;;;51.20;27.50;;;4.00;99.90;;;;;;5016578;28;20724;-68
2022/01/13 06:51:35;;;;;;;55.53;26.80;;;4.10;99.90;;;;;;5004954;28;20227;-69
2022/01/13 06:54:01;;;;;;;60.10;30.83;;;4.10;99.90;;;;;;5007429;28;20200;-69
2022/01/13 06:56:27;;;;;;;46.87;25.50;;;4.00;99.90;;;;;;5009335;28;20204;-69
2022/01/13 06:58:54;;;;;;;54.27;27.20;;;4.00;99.90;;;;;;5026848;28;20207;-69
2022/01/13 07:01:21;;;;;;;55.97;29.67;;;4.00;99.90;;;;;;5027124;28;20284;-68
2022/01/13 07:03:47;;;;;;;53.77;27.33;;;3.90;99.90;;;;;;5027141;28;20452;-69
2022/01/13 07:06:13;;;;;;;50.30;26.37;;;3.90;99.90;;;;;;5027227;28;20506;-69
2022/01/13 07:08:38;;;;;;;55.67;27.30;;;4.00;99.90;;;;;;5029056;28;20300;-69
2022/01/13 07:11:04;;;;;;;56.73;28.00;;;4.00;99.90;;;;;;5029353;28;20666;-69
2022/01/13 07:13:32;;;;;;;51.40;27.17;;;4.00;99.90;;;;;;5034003;28;20981;-70
2022/01/13 07:16:00;;;;;;;51.70;28.07;;;4.00;99.90;;;;;;5051258;28;20809;-69
2022/01/13 07:18:27;;;;;;;49.73;27.97;;;4.10;99.90;;;;;;5052462;28;20444;-69
2022/01/13 07:20:52;;;;;;;62.57;28.63;;;4.10;99.90;;;;;;5052477;28;20410;-69
2022/01/13 07:23:18;;;;;;;50.93;29.37;;;4.10;99.90;;;;;;5034176;28;20426;-70
2022/01/13 07:25:43;;;;;;;54.40;28.20;;;4.00;99.90;;;;;;5053369;28;20177;-70
2022/01/13 07:28:10;;;;;;;50.97;29.50;;;4.00;99.90;;;;;;5055086;28;20327;-70
2022/01/13 07:30:36;;;;;;;50.13;27.60;;;4.00;99.90;;;;;;5050524;28;20706;-70
2022/01/13 07:33:01;;;;;;;51.03;26.17;;;4.00;99.90;;;;;;5034971;28;20440;-70
2022/01/13 07:35:27;;;;;;;60.73;28.80;;;4.10;99.90;;;;;;5035745;28;20542;-70
2022/01/13 07:37:52;;;;;;;54.07;26.80;;;4.00;99.90;;;;;;5036866;28;20234;-69
2022/01/13 07:40:18;;;;;;;50.50;26.30;;;3.90;99.90;;;;;;5036750;28;20185;-70
2022/01/13 07:42:47;;;;;;;49.67;26.07;;;3.90;99.90;;;;;;5034753;28;20723;-70
2022/01/13 07:45:15;;;;;;;55.90;28.50;;;3.90;99.90;;;;;;5034512;28;20246;-70
2022/01/13 07:47:41;;;;;;;53.47;27.13;;;4.00;99.90;;;;;;5036541;28;20461;-70
2022/01/13 07:50:08;;;;;;;57.60;29.40;;;3.90;99.90;;;;;;5038767;28;20412;-70
2022/01/13 07:52:34;;;;;;;50.60;27.80;;;3.80;99.90;;;;;;5043830;28;20426;-68
2022/01/13 07:54:59;;;;;;;57.80;27.53;;;3.90;99.90;;;;;;5053428;28;20432;-67
2022/01/13 07:57:25;;;;;;;60.37;28.73;;;4.00;99.90;;;;;;5054223;28;20179;-68
2022/01/13 07:59:52;;;;;;;56.13;27.60;;;4.00;99.90;;;;;;5053179;28;20267;-68
2022/01/13 08:02:18;;;;;;;57.20;28.20;;;4.00;99.90;;;;;;5047166;28;20235;-69
2022/01/13 08:04:44;;;;;;;58.80;27.20;;;4.10;99.90;;;;;;5035681;28;20423;-70
2022/01/13 08:07:10;;;;;;;57.93;29.13;;;4.10;99.90;;;;;;5030591;28;20811;-70
2022/01/13 08:09:35;;;;;;;57.33;28.80;;;4.20;99.90;;;;;;5025717;28;20469;-70
2022/01/13 08:12:01;;;;;;;58.07;29.10;;;4.20;99.90;;;;;;5027056;28;20585;-70
2022/01/13 08:14:26;;;;;;;66.03;30.73;;;4.20;99.90;;;;;;5037379;28;20604;-69
2022/01/13 08:16:56;;;;;;;56.53;28.53;;;4.20;99.90;;;;;;5030192;28;20178;-69
2022/01/13 08:22:06;;;;;;;55.07;28.07;;;4.20;99.90;;;;;;5029957;28;20810;-70
2022/01/13 08:24:32;;;;;;;58.93;28.90;;;4.30;99.90;;;;;;5027219;28;20489;-69
2022/01/13 08:26:57;;;;;;;57.07;28.87;;;4.30;99.90;;;;;;5025810;28;20220;-70
2022/01/13 08:29:23;;;;;;;52.10;28.43;;;4.10;99.90;;;;;;5029745;28;20216;-70
2022/01/13 08:31:49;;;;;;;55.43;27.57;;;4.10;99.90;;;;;;5030560;28;20568;-69
2022/01/13 08:34:16;;;;;;;59.27;28.10;;;4.00;99.90;;;;;;5024023;28;20271;-68
2022/01/13 08:36:42;;;;;;;55.30;27.47;;;4.00;99.90;;;;;;5029610;28;20606;-69
2022/01/13 08:39:08;;;;;;;51.43;25.47;;;4.10;99.90;;;;;;5030105;28;20771;-70
2022/01/13 08:41:34;;;;;;;52.87;27.93;;;4.00;99.90;;;;;;5020305;28;20444;-70
2022/01/13 08:43:59;;;;;;;56.53;26.97;;;4.00;99.90;;;;;;5009924;28;20405;-69
2022/01/13 08:46:26;;;;;;;64.00;29.63;;;4.10;99.90;;;;;;5009688;28;20291;-70
2022/01/13 08:48:52;;;;;;;54.80;28.27;;;4.10;99.90;;;;;;5010188;28;20666;-69
2022/01/13 08:51:18;;;;;;;45.50;25.73;;;4.20;99.90;;;;;;5028917;28;20448;-70
2022/01/13 08:53:45;;;;;;;54.50;28.63;;;4.10;99.90;;;;;;5029451;28;20529;-72
2022/01/13 08:56:11;;;;;;;54.00;27.83;;;4.10;99.90;;;;;;5029875;28;20502;-69
2022/01/13 08:58:37;;;;;;;53.87;29.10;;;4.10;99.90;;;;;;5030595;28;20445;-69
2022/01/13 09:01:03;;;;;;;47.37;24.97;;;4.10;99.90;;;;;;5030026;28;20481;-69
2022/01/13 09:03:28;;;;;;;53.20;26.43;;;4.10;99.90;;;;;;5034983;28;20185;-69
2022/01/13 09:05:54;;;;;;;57.43;28.90;;;4.20;99.90;;;;;;5036489;28;20181;-70
2022/01/13 09:08:20;;;;;;;61.77;29.03;;;4.20;99.90;;;;;;5032178;28;20215;-69
2022/01/13 09:10:45;;;;;;;44.60;25.07;;;4.20;99.90;;;;;;5058969;28;20624;-69
2022/01/13 09:13:16;;;;;;;44.40;24.57;;;4.30;99.90;;;;;;5035065;28;20184;-70
2022/01/13 09:15:47;;;;;;;50.53;25.67;;;4.50;99.90;;;;;;5049398;28;20232;-68
2022/01/13 09:18:31;;;;;;;47.17;26.43;;;4.40;99.90;;;;;;5049318;28;20804;-68
2022/01/13 09:20:57;;;;;;;48.40;26.53;;;4.40;99.90;;;;;;5049564;28;20754;-68
2022/01/13 09:23:23;;;;;;;52.83;27.97;;;4.50;99.90;;;;;;5027872;28;20482;-69
2022/01/13 09:25:48;;;;;;;53.17;27.97;;;4.60;99.90;;;;;;5027402;28;20194;-68
2022/01/13 09:28:14;;;;;;;48.27;25.83;;;4.70;99.90;;;;;;5010955;28;20566;-67
2022/01/13 09:30:39;;;;;;;47.47;25.20;;;4.80;99.90;;;;;;5029090;28;20209;-68
2022/01/13 09:33:06;;;;;;;46.60;25.40;;;4.90;99.90;;;;;;5028111;28;20178;-68
2022/01/13 09:35:32;;;;;;;45.87;24.80;;;4.90;99.90;;;;;;5026137;28;20170;-67
2022/01/13 09:37:58;;;;;;;42.50;24.87;;;5.00;99.90;;;;;;5026648;28;20475;-69
2022/01/13 09:40:24;;;;;;;47.20;24.40;;;5.00;99.90;;;;;;5028769;28;20937;-69
2022/01/13 09:42:50;;;;;;;47.60;28.10;;;5.00;99.90;;;;;;5028075;28;20235;-70
2022/01/13 09:45:17;;;;;;;49.93;26.43;;;4.80;99.90;;;;;;5023527;28;20194;-69
2022/01/13 09:47:44;;;;;;;42.60;24.20;;;4.70;99.90;;;;;;5028219;28;20850;-70
2022/01/13 09:50:13;;;;;;;57.80;28.60;;;4.70;99.90;;;;;;5028911;28;20413;-70
2022/01/13 09:52:41;;;;;;;48.77;25.90;;;4.90;99.90;;;;;;5028621;28;20497;-69
2022/01/13 09:55:08;;;;;;;47.60;25.00;;;5.00;99.90;;;;;;5028752;28;20474;-69
2022/01/13 09:57:34;;;;;;;50.20;27.00;;;5.10;99.90;;;;;;5028392;28;20405;-69
2022/01/13 10:00:00;;;;;;;48.40;26.97;;;5.10;99.90;;;;;;5028683;28;20538;-69
2022/01/13 10:02:26;;;;;;;55.47;28.03;;;5.10;99.90;;;;;;5027895;28;20432;-68
2022/01/13 10:04:53;;;;;;;54.57;26.93;;;5.10;99.90;;;;;;5010767;28;20417;-69
2022/01/13 10:07:34;;;;;;;53.23;27.73;;;4.90;99.90;;;;;;5028373;28;20459;-69
2022/01/13 10:10:06;;;;;;;53.33;27.80;;;5.00;99.90;;;;;;5028386;28;20572;-69
2022/01/13 10:12:37;;;;;;;52.67;26.90;;;5.10;99.90;;;;;;5028283;28;20449;-69
2022/01/13 10:18:03;;;;;;;45.00;23.97;;;5.10;99.90;;;;;;5028738;28;20401;-69
2022/01/13 10:20:28;;;;;;;47.13;25.17;;;5.20;99.90;;;;;;5028432;28;20420;-69
2022/01/13 10:22:54;;;;;;;48.70;25.13;;;5.20;99.90;;;;;;5027902;28;21001;-68
2022/01/13 10:25:35;;;;;;;42.67;24.23;;;5.20;99.90;;;;;;5025181;28;20262;-68
2022/01/13 10:28:14;;;;;;;40.60;23.00;;;5.30;99.90;;;;;;5022962;28;20313;-69
2022/01/13 10:30:40;;;;;;;39.67;23.17;;;5.40;99.90;;;;;;5021265;28;20456;-69
2022/01/13 10:33:21;;;;;;;41.77;22.30;;;5.40;99.90;;;;;;5028780;28;20414;-70
2022/01/13 10:35:48;;;;;;;38.10;21.40;;;5.50;99.90;;;;;;5028406;28;20754;-70
2022/01/13 10:38:16;;;;;;;34.00;17.93;;;5.50;99.90;;;;;;5027615;28;20767;-69
2022/01/13 10:40:47;;;;;;;36.20;20.53;;;5.70;99.90;;;;;;5028297;28;21014;-69
2022/01/13 10:43:15;;;;;;;37.43;20.47;;;5.90;99.90;;;;;;5028110;28;20421;-69
2022/01/13 10:45:46;;;;;;;37.73;21.70;;;5.90;99.90;;;;;;5015460;28;20477;-69
2022/01/13 10:48:22;;;;;;;45.63;24.40;;;6.10;99.90;;;;;;5020217;28;20503;-69
2022/01/13 10:50:57;;;;;;;37.67;20.73;;;6.00;99.90;;;;;;5008270;28;20529;-69
2022/01/13 10:53:31;;;;;;;45.43;23.80;;;6.10;99.90;;;;;;5020923;28;20403;-69
2022/01/13 10:56:11;;;;;;;48.63;23.20;;;6.10;99.90;;;;;;5014862;28;20798;-69
2022/01/13 10:58:47;;;;;;;43.20;25.33;;;6.00;99.90;;;;;;5021638;28;20420;-69
2022/01/13 11:01:14;;;;;;;44.00;22.20;;;6.00;99.90;;;;;;5035200;28;20433;-70
2022/01/13 11:03:42;;;;;;;39.30;23.07;;;6.00;99.90;;;;;;5034998;28;20499;-69
2022/01/13 11:06:09;;;;;;;41.30;24.10;;;5.90;99.90;;;;;;5034652;28;20467;-68
2022/01/13 11:08:43;;;;;;;41.47;22.30;;;5.80;99.90;;;;;;5031980;28;20546;-67
2022/01/13 11:11:30;;;;;;;38.30;22.43;;;6.00;99.90;;;;;;5030805;28;20483;-66
2022/01/13 11:14:10;;;;;;;42.13;22.17;;;5.90;99.90;;;;;;5034666;28;20507;-71
2022/01/13 11:16:38;;;;;;;40.43;22.03;;;5.90;99.90;;;;;;5033804;28;20436;-68
2022/01/13 11:19:05;;;;;;;38.70;21.20;;;6.00;99.90;;;;;;5034568;28;20464;-68
2022/01/13 11:21:31;;;;;;;39.90;21.60;;;6.10;99.90;;;;;;5034069;28;21185;-70
2022/01/13 11:23:59;;;;;;;33.83;19.30;;;6.20;99.90;;;;;;5034359;28;20410;-69
2022/01/13 11:26:27;;;;;;;36.43;21.93;;;6.20;99.90;;;;;;5034398;28;20410;-69
2022/01/13 11:28:54;;;;;;;33.30;20.83;;;6.30;99.90;;;;;;5034494;28;20457;-69
2022/01/13 11:31:19;;;;;;;36.37;19.20;;;6.40;99.90;;;;;;5034406;28;20425;-70
2022/01/13 11:33:45;;;;;;;30.30;18.37;;;6.50;99.90;;;;;;5034427;28;20538;-69
2022/01/13 11:36:12;;;;;;;31.37;17.60;;;6.50;99.90;;;;;;5033607;28;20269;-70
2022/01/13 11:38:51;;;;;;;30.67;18.23;;;6.60;99.90;;;;;;5035048;28;20198;-69
2022/01/13 11:41:17;;;;;;;29.90;16.43;;;6.70;99.90;;;;;;5033807;28;20469;-70
2022/01/13 11:43:43;;;;;;;26.93;16.17;;;6.70;99.90;;;;;;5034110;28;20414;-69
2022/01/13 11:46:44;;;;;;;25.83;15.77;;;6.70;99.90;;;;;;5033844;28;20174;-68
2022/01/13 11:49:16;;;;;;;25.27;16.90;;;6.80;99.90;;;;;;5034041;28;20203;-69
2022/01/13 11:52:12;;;;;;;27.83;16.70;;;6.80;99.90;;;;;;5036314;28;20430;-68
2022/01/13 11:54:39;;;;;;;28.17;18.83;;;6.80;99.90;;;;;;5034783;28;20799;-69
2022/01/13 11:57:23;;;;;;;27.37;15.73;;;6.80;99.90;;;;;;5033751;28;20505;-69
2022/01/13 11:59:55;;;;;;;24.30;15.70;;;6.80;99.90;;;;;;5035938;28;20413;-69
2022/01/13 12:02:29;;;;;;;25.07;17.30;;;6.80;99.90;;;;;;5033781;28;20575;-68
2022/01/13 12:05:25;;;;;;;27.00;17.17;;;6.90;99.90;;;;;;5033960;28;20409;-69
2022/01/13 12:07:54;;;;;;;25.23;16.93;;;6.80;99.90;;;;;;5033777;28;20560;-68
2022/01/13 12:10:35;;;;;;;28.97;17.10;;;6.90;99.90;;;;;;5033868;28;20914;-71
2022/01/13 12:13:33;;;;;;;30.70;17.83;;;7.00;99.90;;;;;;5082868;22;20510;-70
2022/01/13 12:16:00;;;;;;;31.27;18.67;;;6.90;99.90;;;;;;5053869;28;20519;-69
2022/01/13 12:18:53;;;;;;;28.67;18.03;;;6.80;99.90;;;;;;5053378;28;20409;-70
2022/01/13 12:21:27;;;;;;;31.50;19.03;;;6.80;99.90;;;;;;5053584;28;20425;-72
2022/01/13 12:23:54;;;;;;;34.17;19.10;;;6.80;99.90;;;;;;5053575;28;20513;-69
2022/01/13 12:26:34;;;;;;;28.63;17.43;;;6.80;99.90;;;;;;5053279;28;20826;-68
2022/01/13 12:29:15;;;;;;;31.93;17.83;;;6.80;99.90;;;;;;5053497;28;20831;-71
2022/01/13 12:32:01;;;;;;;32.67;19.23;;;6.90;99.90;;;;;;5053403;28;20928;-70
2022/01/13 12:34:32;;;;;;;32.37;18.00;;;7.00;99.90;;;;;;5053233;28;20464;-70
2022/01/13 12:37:12;;;;;;;36.70;18.73;;;6.90;99.90;;;;;;5055608;28;20447;-69
2022/01/13 12:39:43;;;;;;;32.47;18.10;;;6.90;99.90;;;;;;5072580;28;20954;-70
2022/01/13 12:42:27;;;;;;;31.80;17.53;;;7.00;99.90;;;;;;5066756;28;20463;-70
2022/01/13 12:47:39;;;;;;;32.30;18.57;;;7.10;99.90;;;;;;5059847;28;20979;-71
2022/01/13 12:50:22;;;;;;;27.97;17.67;;;7.10;99.90;;;;;;5060322;28;20827;-71
2022/01/13 12:52:48;;;;;;;29.50;18.17;;;7.00;99.90;;;;;;5074629;28;20922;-71
2022/01/13 12:55:14;;;;;;;37.27;18.60;;;7.10;99.90;;;;;;5073547;28;20512;-71
2022/01/13 12:57:52;;;;;;;36.70;21.50;;;7.10;99.90;;;;;;5074911;28;20441;-72
2022/01/13 13:00:22;;;;;;;35.37;20.57;;;7.00;99.90;;;;;;5073521;28;20433;-71